Portada
METAR-TAF:

METAR-TAF

Aeroports :

Magnitogorsk, Rússia

latitud: 53-23-36N, longitud: 058-45-24E, altitud: 436 m

Observació

L'informe es va fer fa 16 minuts, a les 23:00 UTC
Vent 12 kt del Nord/Nord-Est
Temperatura 16°C
Humitat 100%
Pressió 998 hPa
Visibilitat: 3100 m
Cel cobert a una alçada de 700 ft, Cumulonimbus.
xàfecs de pluja

METAR: USCM 082300Z 02006MPS 3100 R36/2000U -SHRA OVC007CB 16/16 Q0998 R36/290255 TEMPO 1000 SHRA VV005 RMK QFE710

Hora: 04:16 (23:16 UTC)

Pronòstic

L'informe es va fer fa 3 hores i 16 minuts, a les 20:00 UTC
Pronòstic vàlid del 08 a les 21 UTC al 09 a les 06 UTC
Vent 6 kt del Nord amb ràfegues de 23 kt
Visibilitat: 6000 m
Cel ennuvolat a una alçada de 1600 ft, Cumulonimbus.
xàfecs de pluja
Temporalment
l' 08 a les 21 UTC al 09 a les 06 UTC
Vent 14 kt del Nord-Est amb ràfegues de 39 kt
Visibilitat: 3100 m
a una alçada de 700 ft
tempesta, pluja

TAF: USCM 082000Z 0821/0906 01003G12MPS 6000 -SHRA BKN016CB TEMPO 0821/0906 04007G20MPS 3100 -TSRA VV007

Observacions i pronòstics meteorològics de més de 4000 aeroports (METAR i TAF).

Les estacions disponibles són els punts grocs i vermells al mapa.

Posi el ratolí al punt desitjat per veure el nom de l'estació.

Feu clic per veure les observacions i els pronòstics meteorològics.

Per canviar el mapa: feu clic els botons verds amb una creu de color negre per apropar; al botó verd amb un guió per allunyar la imatge; o en les fletxes verdes per a mapes adjacents.


METAR-TAF: